Vigan, Philippines

3:11 AM PHT on March 04, 2015 (GMT +0800)
Laoag International | Change Station
CLOSE
Current Station
Airport
Location: Laoag,
Elevation: 16 ft
Nearby Weather Stations

Elev 16 ft 18.18 °N, 120.53 °E | Updated 1 hour ago

Mostly Cloudy
Mostly Cloudy
72 °F
Feels Like 72 °F
N
0
Wind Variable Wind from North

Today
High -- | Low -- °F
--% Chance of Precip.
Yesterday
High -- | Low -- °F
Precip. -- in
6:15 AM 6:05 PM
Waxing Gibbous, 97% visible
Pressure 29.89 in
Visibility 6.2 miles
Clouds Few 1900 ft
Mostly Cloudy 10000 ft
Dew Point 70 °F
Humidity 94%
Rainfall 0.00 in
Snow Depth Not available.
UV 0 out of 12
Pollen Not available.
Air Quality Not available.
Flu Activity Not available.
METAR RPLI 031800Z 00000KT 9999 FEW019 BKN100 22/21 Q1012 NOSIG RMK A2988

More Conditions Fewer Conditions

Pressure 29.89 in
Visibility 6.2 miles
Clouds Few 1900 ft
Mostly Cloudy 10000 ft
Dew Point 70 °F
Humidity 94%
Rainfall 0.00 in
Snow Depth Not available.
UV 0 out of 12
Pollen Not available.
Air Quality Not available.
Flu Activity Not available.
METAR RPLI 031800Z 00000KT 9999 FEW019 BKN100 22/21 Q1012 NOSIG RMK A2988

More Conditions Fewer Conditions

10-Day Weather Forecast

Almanac

Astronomy

Mar. 04, 2015 Rise Set
Actual Time
Civil Twilight
Nautical Twilight
Astronomical Twilight
Moon
Length of Visible Light
Length of Day
Tomorrow will be .
, % of the Moon is Illuminated

Today's Extremes

Country Highs Country Lows

Community

WunderPhotos

Upload Photos

1,802,201 photos uploaded!

WunderBlogs® & News

Nearby

Air Quality

  Air Quality AQ Index Pollutant
Not available.

Snow Depth

Station Depth Elevation

Earthquake Activity

City Distance Mag. Time & Date
Minimum magnitude displayed is 2.5.

Coastal Water Temperatures

Place Temperature

Nearby Weather Stations